Time;durP1;ratioP1;P1;durP2;ratioP2;P2;SDS_P1;SDS_P2;PMS_P1;PMS_P2;Temp;Humidity;BMP_temperature;BMP_pressure;BME280_temperature;BME280_humidity;BME280_pressure;Samples;Min_cycle;Max_cycle;Signal;HPM_P1;HPM_P2
2022/08/14 00:02:23;;;;;;;5.53;3.50;;;21.30;99.90;;;;;;5083100;28;20513;-73
2022/08/14 00:04:49;;;;;;;10.90;4.45;;;21.30;99.90;;;;;;5066897;28;20036;-74
2022/08/14 00:07:15;;;;;;;8.70;3.97;;;21.30;99.90;;;;;;5070164;28;20490;-73
2022/08/14 00:09:42;;;;;;;4.63;3.95;;;21.20;99.90;;;;;;5063395;28;20392;-73
2022/08/14 00:12:08;;;;;;;4.47;3.95;;;21.30;99.90;;;;;;5068496;28;20057;-73
2022/08/14 00:14:35;;;;;;;5.78;3.63;;;21.30;99.90;;;;;;5087269;28;20036;-73
2022/08/14 00:17:00;;;;;;;6.15;4.18;;;21.20;99.90;;;;;;5086399;28;20074;-73
2022/08/14 00:19:26;;;;;;;7.93;4.97;;;21.20;99.90;;;;;;5058858;28;20079;-71
2022/08/14 00:21:52;;;;;;;5.07;3.53;;;21.10;99.90;;;;;;5086010;28;20047;-71
2022/08/14 00:24:19;;;;;;;4.25;3.72;;;21.10;99.90;;;;;;5086121;28;20194;-72
2022/08/14 00:26:44;;;;;;;7.07;4.68;;;21.10;99.90;;;;;;5068893;28;20105;-72
2022/08/14 00:29:10;;;;;;;6.43;4.47;;;21.10;99.90;;;;;;5066556;28;20036;-72
2022/08/14 00:31:36;;;;;;;5.25;4.65;;;21.00;99.90;;;;;;5085813;28;20512;-72
2022/08/14 00:34:02;;;;;;;5.55;4.53;;;21.10;99.90;;;;;;5049636;28;20044;-73
2022/08/14 00:36:28;;;;;;;6.75;4.07;;;21.00;99.90;;;;;;5087449;28;20375;-72
2022/08/14 00:38:54;;;;;;;5.97;4.55;;;21.00;99.90;;;;;;5085897;28;20036;-73
2022/08/14 00:41:19;;;;;;;6.18;4.22;;;21.10;99.90;;;;;;5078581;28;20090;-73
2022/08/14 00:43:45;;;;;;;4.85;4.20;;;21.00;99.90;;;;;;5087864;28;20402;-72
2022/08/14 00:46:11;;;;;;;6.38;4.60;;;21.00;99.90;;;;;;5065331;28;20052;-73
2022/08/14 00:48:37;;;;;;;6.97;4.90;;;20.90;99.90;;;;;;5071666;28;20258;-73
2022/08/14 00:51:09;;;;;;;5.53;4.15;;;20.90;99.90;;;;;;5084554;28;20494;-73
2022/08/14 00:53:37;;;;;;;5.32;4.28;;;20.90;99.90;;;;;;5086990;28;20058;-71
2022/08/14 00:56:06;;;;;;;7.07;5.68;;;20.90;99.90;;;;;;5084995;28;20048;-72
2022/08/14 00:58:33;;;;;;;10.07;5.07;;;20.90;99.90;;;;;;5087096;28;20050;-73
2022/08/14 01:01:04;;;;;;;8.65;4.68;;;20.90;99.90;;;;;;5067201;28;20070;-72
2022/08/14 01:03:32;;;;;;;10.10;5.25;;;20.80;99.90;;;;;;5084865;28;20044;-71
2022/08/14 01:05:58;;;;;;;7.60;4.65;;;20.80;99.90;;;;;;5085852;28;20040;-73
2022/08/14 01:08:26;;;;;;;5.93;4.28;;;20.80;99.90;;;;;;5048556;28;20097;-72
2022/08/14 01:10:54;;;;;;;7.60;4.70;;;20.70;99.90;;;;;;5070353;28;20071;-73
2022/08/14 01:13:33;;;;;;;6.93;5.50;;;20.60;99.90;;;;;;5066196;28;20172;-73
2022/08/14 01:16:03;;;;;;;6.17;5.03;;;20.60;99.90;;;;;;5084722;28;20048;-72
2022/08/14 01:21:16;;;;;;;8.30;5.10;;;20.40;99.90;;;;;;5086153;28;20513;-72
2022/08/14 01:23:46;;;;;;;14.68;5.15;;;20.40;99.90;;;;;;5067156;28;20114;-71
2022/08/14 01:26:14;;;;;;;6.45;5.85;;;20.30;99.90;;;;;;5070040;28;20040;-72
2022/08/14 01:28:41;;;;;;;6.88;6.18;;;20.30;99.90;;;;;;5089770;28;20394;-71
2022/08/14 01:31:14;;;;;;;9.52;6.20;;;20.20;99.90;;;;;;5070270;28;20052;-72
2022/08/14 01:33:45;;;;;;;7.93;6.65;;;20.10;99.90;;;;;;5084644;28;20072;-72
2022/08/14 01:36:12;;;;;;;8.10;7.00;;;20.10;99.90;;;;;;5071022;28;20149;-73
2022/08/14 01:38:41;;;;;;;10.55;6.38;;;20.10;99.90;;;;;;5070809;28;20036;-72
2022/08/14 01:41:09;;;;;;;6.82;6.10;;;20.10;99.90;;;;;;5086900;28;20052;-72
2022/08/14 01:43:47;;;;;;;9.18;7.40;;;20.10;99.90;;;;;;5089874;28;20028;-72
2022/08/14 01:46:23;;;;;;;7.28;5.47;;;20.10;99.90;;;;;;5088452;28;20372;-72
2022/08/14 01:48:50;;;;;;;8.10;7.15;;;20.10;99.90;;;;;;5071529;28;20113;-74
2022/08/14 01:51:21;;;;;;;10.25;6.25;;;20.00;99.90;;;;;;5071650;28;20044;-72
2022/08/14 01:53:53;;;;;;;8.05;7.22;;;20.00;99.90;;;;;;5072496;28;20150;-72
2022/08/14 01:56:20;;;;;;;7.47;6.35;;;20.00;99.90;;;;;;5050850;28;20048;-75
2022/08/14 01:58:48;;;;;;;8.48;6.88;;;20.00;99.90;;;;;;5069655;28;20079;-72
2022/08/14 02:01:18;;;;;;;7.68;6.90;;;19.90;99.90;;;;;;5089513;28;20048;-72
2022/08/14 02:03:45;;;;;;;7.55;6.50;;;19.90;99.90;;;;;;5071689;28;20044;-72
2022/08/14 02:06:11;;;;;;;8.95;6.68;;;20.00;99.90;;;;;;5069385;28;20128;-72
2022/08/14 02:08:39;;;;;;;9.88;7.57;;;19.90;99.90;;;;;;5085655;28;20043;-73
2022/08/14 02:11:21;;;;;;;14.13;7.18;;;19.80;99.90;;;;;;5088046;28;20089;-73
2022/08/14 02:13:48;;;;;;;10.50;7.13;;;19.80;99.90;;;;;;5090446;28;20044;-72
2022/08/14 02:16:18;;;;;;;12.20;7.10;;;19.80;99.90;;;;;;5068458;28;20040;-72
2022/08/14 02:18:45;;;;;;;9.35;8.32;;;19.80;99.90;;;;;;5065859;28;20561;-71
2022/08/14 02:21:13;;;;;;;7.65;6.95;;;19.80;99.90;;;;;;5088120;28;20047;-72
2022/08/14 02:23:39;;;;;;;12.98;7.47;;;19.80;99.90;;;;;;5088707;28;20816;-72
2022/08/14 02:26:16;;;;;;;9.65;8.02;;;19.70;99.90;;;;;;5068728;28;20040;-75
2022/08/14 02:28:42;;;;;;;10.10;7.97;;;19.80;99.90;;;;;;5082792;28;20166;-72
2022/08/14 02:31:08;;;;;;;8.23;7.38;;;19.70;99.90;;;;;;5087005;28;20127;-73
2022/08/14 02:33:34;;;;;;;10.93;9.13;;;19.60;99.90;;;;;;5089623;28;20040;-71
2022/08/14 02:36:02;;;;;;;11.27;8.68;;;19.60;99.90;;;;;;5069672;28;20032;-71
2022/08/14 02:38:29;;;;;;;11.27;8.82;;;19.60;99.90;;;;;;5069560;28;20044;-73
2022/08/14 02:40:58;;;;;;;11.10;8.15;;;19.60;99.90;;;;;;5051043;28;20762;-72
2022/08/14 02:43:29;;;;;;;11.05;8.50;;;19.60;99.90;;;;;;5063571;28;20049;-73
2022/08/14 02:45:55;;;;;;;10.75;8.40;;;19.50;99.90;;;;;;5087746;28;20047;-71
2022/08/14 02:48:21;;;;;;;9.48;7.72;;;19.60;99.90;;;;;;5076408;28;20032;-72
2022/08/14 02:50:47;;;;;;;8.18;7.40;;;19.50;99.90;;;;;;5053330;28;20064;-71
2022/08/14 02:53:13;;;;;;;11.18;8.38;;;19.40;99.90;;;;;;5087745;28;20062;-72
2022/08/14 02:55:40;;;;;;;19.80;9.27;;;19.40;99.90;;;;;;5049077;28;20072;-74
2022/08/14 02:58:06;;;;;;;18.45;9.52;;;19.40;99.90;;;;;;5082950;28;20044;-72
2022/08/14 03:00:34;;;;;;;8.88;8.07;;;19.40;99.90;;;;;;5085004;28;20039;-73
2022/08/14 03:03:01;;;;;;;10.70;7.90;;;19.40;99.90;;;;;;5082892;28;20040;-72
2022/08/14 03:05:30;;;;;;;13.38;9.40;;;19.40;99.90;;;;;;5070552;28;20097;-71
2022/08/14 03:08:08;;;;;;;9.82;8.75;;;19.30;99.90;;;;;;5068210;28;20054;-72
2022/08/14 03:10:35;;;;;;;11.65;8.30;;;19.30;99.90;;;;;;5065200;28;20332;-71
2022/08/14 03:13:03;;;;;;;15.43;9.77;;;19.20;99.90;;;;;;5068835;28;20054;-72
2022/08/14 03:15:34;;;;;;;10.82;8.15;;;19.20;99.90;;;;;;5089128;28;20051;-72
2022/08/14 03:18:00;;;;;;;11.63;8.88;;;19.20;99.90;;;;;;5069249;28;20052;-72
2022/08/14 03:20:27;;;;;;;10.23;9.25;;;19.20;99.90;;;;;;5068138;28;20399;-72
2022/08/14 03:22:55;;;;;;;10.70;9.70;;;19.20;99.90;;;;;;5088433;28;20047;-72
2022/08/14 03:25:21;;;;;;;11.13;9.60;;;19.20;99.90;;;;;;5085783;28;20173;-72
2022/08/14 03:27:47;;;;;;;11.80;9.07;;;19.20;99.90;;;;;;5089308;28;20040;-80
2022/08/14 03:30:13;;;;;;;18.75;8.68;;;19.30;99.90;;;;;;5069275;28;20429;-78
2022/08/14 03:32:38;;;;;;;10.70;8.57;;;19.30;99.90;;;;;;5065673;28;20414;-73
2022/08/14 03:35:06;;;;;;;15.05;9.52;;;19.30;99.90;;;;;;5067618;28;20157;-73
2022/08/14 03:37:32;;;;;;;13.60;9.98;;;19.30;99.90;;;;;;5087865;28;20484;-74
2022/08/14 03:39:58;;;;;;;12.73;9.43;;;19.30;99.90;;;;;;5086160;28;20040;-73
2022/08/14 03:42:24;;;;;;;12.50;9.57;;;19.30;99.90;;;;;;5084529;28;20028;-73
2022/08/14 03:44:50;;;;;;;10.77;9.57;;;19.30;99.90;;;;;;5085499;28;20039;-74
2022/08/14 03:47:16;;;;;;;11.65;9.85;;;19.30;99.90;;;;;;5051890;28;20449;-73
2022/08/14 03:49:44;;;;;;;12.80;10.52;;;19.30;99.90;;;;;;5084165;28;20048;-74
2022/08/14 03:52:10;;;;;;;11.05;9.10;;;19.30;99.90;;;;;;5067267;28;20726;-73
2022/08/14 03:54:36;;;;;;;11.50;9.60;;;19.20;99.90;;;;;;5067268;28;20036;-73
2022/08/14 03:57:03;;;;;;;16.00;10.18;;;19.30;99.90;;;;;;5069617;28;20129;-74
2022/08/14 03:59:29;;;;;;;14.23;11.00;;;19.20;99.90;;;;;;5067828;28;20181;-74
2022/08/14 04:01:55;;;;;;;12.75;10.43;;;19.20;99.90;;;;;;5085262;28;20039;-73
2022/08/14 04:04:20;;;;;;;11.48;9.98;;;19.20;99.90;;;;;;5086611;28;20117;-73
2022/08/14 04:06:47;;;;;;;10.00;8.88;;;19.30;99.90;;;;;;5069069;28;20048;-72
2022/08/14 04:09:13;;;;;;;12.55;10.35;;;19.30;99.90;;;;;;5083345;28;20059;-72
2022/08/14 04:11:38;;;;;;;12.38;9.68;;;19.30;99.90;;;;;;5087068;28;20043;-75
2022/08/14 04:14:05;;;;;;;11.00;9.88;;;19.20;99.90;;;;;;5069349;28;20204;-74
2022/08/14 04:16:31;;;;;;;12.23;9.65;;;19.20;99.90;;;;;;5069525;28;20072;-74
2022/08/14 04:18:58;;;;;;;10.43;9.30;;;19.20;99.90;;;;;;5064434;28;20076;-73
2022/08/14 04:21:28;;;;;;;11.73;10.05;;;19.20;99.90;;;;;;5075495;28;20028;-73
2022/08/14 04:23:56;;;;;;;12.73;10.35;;;19.30;99.90;;;;;;5083498;28;20040;-72
2022/08/14 04:26:26;;;;;;;11.82;8.95;;;19.20;99.90;;;;;;5087473;28;20127;-73
2022/08/14 04:28:52;;;;;;;12.07;10.95;;;19.20;99.90;;;;;;5084323;28;20051;-74
2022/08/14 04:31:19;;;;;;;16.05;9.68;;;19.20;99.90;;;;;;5065942;28;20478;-75
2022/08/14 04:33:47;;;;;;;10.68;9.63;;;19.10;99.90;;;;;;5087600;28;20040;-73
2022/08/14 04:36:13;;;;;;;13.57;9.93;;;19.10;99.90;;;;;;5086854;28;20047;-73
2022/08/14 04:44:18;;;;;;;12.65;9.55;;;19.10;99.90;;;;;;5032115;28;20128;-73
2022/08/14 04:49:28;;;;;;;13.95;10.07;;;19.00;99.90;;;;;;5066199;28;20048;-74
2022/08/14 04:51:54;;;;;;;13.55;9.50;;;19.10;99.90;;;;;;5063288;28;20066;-72
2022/08/14 04:54:20;;;;;;;14.65;9.77;;;19.10;99.90;;;;;;5085112;28;20036;-73
2022/08/14 04:56:46;;;;;;;13.25;10.25;;;19.10;99.90;;;;;;5086581;28;20051;-73
2022/08/14 04:59:12;;;;;;;11.15;10.02;;;19.10;99.90;;;;;;5085319;28;20474;-73
2022/08/14 05:01:43;;;;;;;9.65;8.73;;;19.20;99.90;;;;;;5084925;28;20517;-73
2022/08/14 05:04:11;;;;;;;12.85;11.52;;;19.30;99.90;;;;;;5086061;28;20048;-73
2022/08/14 05:06:37;;;;;;;14.57;10.15;;;19.30;99.90;;;;;;5067421;28;20087;-72
2022/08/14 05:09:04;;;;;;;10.75;9.65;;;19.40;99.90;;;;;;5083987;28;20036;-73
2022/08/14 05:11:32;;;;;;;13.68;10.57;;;19.40;99.90;;;;;;5065384;28;20051;-73
2022/08/14 05:14:00;;;;;;;11.98;8.98;;;19.40;99.90;;;;;;5059615;28;20090;-75
2022/08/14 05:16:28;;;;;;;12.93;8.85;;;19.50;99.90;;;;;;5083187;28;20123;-74
2022/08/14 05:18:54;;;;;;;10.00;9.07;;;19.50;99.90;;;;;;5084883;28;20036;-73
2022/08/14 05:21:20;;;;;;;17.23;10.57;;;19.50;99.90;;;;;;5082224;28;20201;-74
2022/08/14 05:23:46;;;;;;;11.70;10.52;;;19.60;99.90;;;;;;5074550;28;20032;-73
2022/08/14 05:26:12;;;;;;;11.00;9.60;;;19.60;99.90;;;;;;5058672;28;20459;-80
2022/08/14 05:28:42;;;;;;;13.73;8.80;;;19.70;99.90;;;;;;5044909;28;20455;-79
2022/08/14 05:31:07;;;;;;;;;;;19.80;99.90;;;;;;5061160;28;20044;-79
2022/08/14 05:33:35;;;;;;;11.43;10.32;;;19.80;99.90;;;;;;5064320;28;20263;-79
2022/08/14 05:36:05;;;;;;;11.63;10.27;;;19.90;99.90;;;;;;5051137;28;20112;-91
2022/08/14 05:38:40;;;;;;;11.80;10.10;;;19.90;99.90;;;;;;5077111;28;20045;-92
2022/08/14 05:41:10;;;;;;;10.60;9.50;;;20.00;99.90;;;;;;5069709;28;20388;-90
2022/08/14 05:43:36;;;;;;;9.80;8.90;;;20.00;99.90;;;;;;5087816;28;20131;-91
2022/08/14 05:46:02;;;;;;;12.18;9.88;;;20.10;99.90;;;;;;5091393;28;20634;-92
2022/08/14 05:48:28;;;;;;;10.57;9.48;;;20.20;99.90;;;;;;5071632;28;20043;-91
2022/08/14 05:50:54;;;;;;;10.75;9.20;;;20.30;99.90;;;;;;5086830;28;20549;-90
2022/08/14 05:53:21;;;;;;;11.38;9.43;;;20.30;99.90;;;;;;5073799;28;20047;-89
2022/08/14 05:55:48;;;;;;;11.60;8.27;;;20.40;99.90;;;;;;5089071;28;20040;-90
2022/08/14 05:58:13;;;;;;;13.07;10.10;;;20.40;99.90;;;;;;5074037;28;20123;-90
2022/08/14 06:00:42;;;;;;;10.32;9.32;;;20.40;99.90;;;;;;5074223;28;20083;-92
2022/08/14 06:03:15;;;;;;;10.38;9.15;;;20.50;99.90;;;;;;5062820;28;20358;-90
2022/08/14 06:05:42;;;;;;;11.23;8.10;;;20.50;99.90;;;;;;5087436;28;20058;-89
2022/08/14 06:08:23;;;;;;;10.70;8.20;;;20.60;99.90;;;;;;5107205;28;20245;-81
2022/08/14 06:10:54;;;;;;;9.00;8.10;;;20.60;99.90;;;;;;5060348;28;20491;-82
2022/08/14 06:13:20;;;;;;;9.23;8.27;;;20.70;99.90;;;;;;5082006;28;20150;-85
2022/08/14 06:15:47;;;;;;;10.25;9.15;;;20.80;99.90;;;;;;5074441;28;20114;-90
2022/08/14 06:18:14;;;;;;;11.15;7.90;;;20.80;99.90;;;;;;5096662;28;21141;-89
2022/08/14 06:20:40;;;;;;;12.98;8.57;;;20.90;99.90;;;;;;5092102;28;20036;-91
2022/08/14 06:23:06;;;;;;;12.57;9.05;;;21.00;99.90;;;;;;5073776;28;20047;-86
2022/08/14 06:25:32;;;;;;;10.38;9.18;;;21.10;99.90;;;;;;5077381;28;20093;-90
2022/08/14 06:27:58;;;;;;;11.30;8.55;;;21.10;99.90;;;;;;5084526;28;20048;-89
2022/08/14 06:30:26;;;;;;;10.00;9.00;;;21.20;99.90;;;;;;5087099;28;20051;-89
2022/08/14 06:32:52;;;;;;;8.43;7.32;;;21.30;99.90;;;;;;5075447;28;20119;-90
2022/08/14 06:35:19;;;;;;;11.57;7.97;;;21.30;99.90;;;;;;5095772;28;20449;-91
2022/08/14 06:37:52;;;;;;;14.50;7.47;;;21.40;99.90;;;;;;5080439;28;20036;-88
2022/08/14 06:40:19;;;;;;;9.23;8.18;;;21.40;99.90;;;;;;5046331;28;20052;-89
2022/08/14 06:42:45;;;;;;;8.77;6.97;;;21.50;99.90;;;;;;5082598;28;20037;-91
2022/08/14 06:45:11;;;;;;;8.75;7.82;;;21.60;99.90;;;;;;5095881;28;20044;-90
2022/08/14 06:47:39;;;;;;;11.77;8.38;;;21.70;99.90;;;;;;5073892;28;20040;-88
2022/08/14 06:50:09;;;;;;;9.45;8.38;;;21.80;99.90;;;;;;5078939;28;20140;-90
2022/08/14 06:52:35;;;;;;;7.78;7.07;;;21.80;99.90;;;;;;5096683;28;20036;-90
2022/08/14 06:55:01;;;;;;;9.90;7.80;;;21.90;99.90;;;;;;5076658;28;20094;-91
2022/08/14 06:57:37;;;;;;;12.05;8.75;;;21.90;99.90;;;;;;5076014;28;20143;-89
2022/08/14 07:00:10;;;;;;;7.93;7.18;;;22.00;99.90;;;;;;5093098;28;20406;-89
2022/08/14 07:08:04;;;;;;;9.05;7.85;;;22.60;99.90;;;;;;5085588;28;20048;-77
2022/08/14 07:10:31;;;;;;;8.98;7.30;;;23.00;99.90;;;;;;5088658;28;20558;-76
2022/08/14 07:12:57;;;;;;;9.23;8.32;;;23.70;99.90;;;;;;5069221;28;20130;-77
2022/08/14 07:15:22;;;;;;;10.02;8.18;;;24.80;99.90;;;;;;5069221;28;20195;-76
2022/08/14 07:17:49;;;;;;;8.25;7.22;;;24.60;99.90;;;;;;5070830;28;20028;-78
2022/08/14 07:20:19;;;;;;;11.68;9.18;;;25.30;99.90;;;;;;5066896;28;20039;-79
2022/08/14 07:22:49;;;;;;;9.35;8.38;;;25.60;99.90;;;;;;5069791;28;20048;-78
2022/08/14 07:25:15;;;;;;;9.20;8.30;;;26.00;99.90;;;;;;5056228;28;20044;-77
2022/08/14 07:27:41;;;;;;;10.05;6.57;;;26.50;99.90;;;;;;5086411;28;20059;-78
2022/08/14 07:30:08;;;;;;;8.55;7.00;;;25.20;99.90;;;;;;5073962;28;20036;-78
2022/08/14 07:32:33;;;;;;;9.02;7.07;;;24.80;99.90;;;;;;5072287;28;20048;-78
2022/08/14 07:34:59;;;;;;;5.82;5.13;;;24.60;99.90;;;;;;5090961;28;20036;-78
2022/08/14 07:37:25;;;;;;;6.47;5.80;;;24.50;99.90;;;;;;5090071;28;20486;-77
2022/08/14 07:39:50;;;;;;;7.53;6.70;;;24.50;99.90;;;;;;5087586;28;20177;-79
2022/08/14 07:42:16;;;;;;;7.72;6.10;;;24.30;99.90;;;;;;5087719;28;20171;-72
2022/08/14 07:44:42;;;;;;;7.57;5.75;;;24.50;99.90;;;;;;5086358;28;20047;-74
2022/08/14 07:47:08;;;;;;;6.50;5.80;;;24.70;99.90;;;;;;5086505;28;20047;-77
2022/08/14 07:49:34;;;;;;;6.63;5.97;;;24.70;99.90;;;;;;5075538;28;20093;-74
2022/08/14 07:52:03;;;;;;;6.03;5.47;;;25.00;99.90;;;;;;5087173;28;20413;-75
2022/08/14 07:54:30;;;;;;;10.23;5.77;;;25.00;99.90;;;;;;5082135;28;20032;-74
2022/08/14 07:57:00;;;;;;;6.90;5.57;;;25.20;99.90;;;;;;5066551;28;20052;-74
2022/08/14 07:59:26;;;;;;;11.57;7.05;;;25.20;99.90;;;;;;5086240;28;20069;-75
2022/08/14 08:01:52;;;;;;;6.28;5.63;;;25.10;99.90;;;;;;5086736;28;20510;-74
2022/08/14 08:04:28;;;;;;;10.88;5.50;;;25.20;99.90;;;;;;5084982;28;20048;-76
2022/08/14 08:06:54;;;;;;;6.72;5.70;;;25.40;99.90;;;;;;5083890;28;20055;-74
2022/08/14 08:09:25;;;;;;;6.10;5.50;;;25.50;99.90;;;;;;5077136;28;20452;-75
2022/08/14 08:11:51;;;;;;;6.00;5.45;;;25.80;99.90;;;;;;5080529;28;20052;-75
2022/08/14 08:14:18;;;;;;;7.28;5.85;;;25.90;99.90;;;;;;5085644;28;20044;-74
2022/08/14 08:16:46;;;;;;;8.80;5.32;;;26.00;99.90;;;;;;5085703;28;20044;-74
2022/08/14 08:19:12;;;;;;;7.40;5.13;;;26.20;99.90;;;;;;5080293;28;20092;-83
2022/08/14 08:21:40;;;;;;;7.25;5.72;;;26.00;99.90;;;;;;5077670;28;20456;-82
2022/08/14 08:24:06;;;;;;;8.48;5.28;;;26.00;99.90;;;;;;5076333;28;20045;-83
2022/08/14 08:26:32;;;;;;;7.32;6.15;;;26.30;99.90;;;;;;5068076;28;20032;-83
2022/08/14 08:28:58;;;;;;;6.88;6.07;;;26.30;99.90;;;;;;5068140;28;20032;-84
2022/08/14 08:31:25;;;;;;;5.40;4.80;;;26.40;99.90;;;;;;5085143;28;20075;-85
2022/08/14 08:33:51;;;;;;;6.57;4.75;;;26.30;99.90;;;;;;5062313;28;20044;-85
2022/08/14 08:36:17;;;;;;;9.32;5.03;;;26.40;99.90;;;;;;5078646;28;20033;-83
2022/08/14 08:38:45;;;;;;;6.32;5.60;;;26.30;99.90;;;;;;5081892;28;20051;-84
2022/08/14 08:41:11;;;;;;;8.70;5.32;;;26.40;99.90;;;;;;5084638;28;20471;-83
2022/08/14 08:43:38;;;;;;;7.32;5.43;;;26.50;99.90;;;;;;5085567;28;20036;-83
2022/08/14 08:46:10;;;;;;;6.68;5.10;;;26.60;99.90;;;;;;5086184;28;20072;-82
2022/08/14 08:48:52;;;;;;;8.35;5.70;;;26.80;99.90;;;;;;5085110;28;20051;-83
2022/08/14 08:51:34;;;;;;;7.10;4.78;;;26.80;99.90;;;;;;5067286;28;20040;-82
2022/08/14 08:54:09;;;;;;;7.20;4.75;;;27.00;99.90;;;;;;5075795;28;20040;-84
2022/08/14 08:56:47;;;;;;;6.18;4.90;;;27.00;99.90;;;;;;5077400;28;20037;-83
2022/08/14 08:59:21;;;;;;;5.45;4.95;;;27.10;99.90;;;;;;5082449;28;20048;-82
2022/08/14 09:01:55;;;;;;;10.35;5.47;;;27.20;99.90;;;;;;5079001;28;20932;-83
2022/08/14 09:04:21;;;;;;;7.65;5.72;;;27.10;99.90;;;;;;5083942;28;20040;-82
2022/08/14 09:06:49;;;;;;;5.80;5.30;;;27.20;99.90;;;;;;5040757;28;20147;-84
2022/08/14 09:09:28;;;;;;;6.20;4.57;;;27.20;99.90;;;;;;5060293;28;20458;-82
2022/08/14 09:11:56;;;;;;;6.65;5.07;;;27.30;99.90;;;;;;5052831;28;20087;-83
2022/08/14 09:14:28;;;;;;;8.57;4.70;;;27.30;99.90;;;;;;5080032;28;20419;-83
2022/08/14 09:16:58;;;;;;;7.43;5.05;;;27.30;99.90;;;;;;5051010;28;20103;-83
2022/08/14 09:19:24;;;;;;;;;;;27.30;99.90;;;;;;5052722;28;20037;-83
2022/08/14 09:21:49;;;;;;;6.30;4.55;;;27.40;99.90;;;;;;5081313;28;19920;-83
2022/08/14 09:24:15;;;;;;;6.88;5.18;;;27.50;99.90;;;;;;5085866;28;20036;-83
2022/08/14 09:26:43;;;;;;;4.95;4.20;;;27.50;99.90;;;;;;5085862;28;20040;-82
2022/08/14 09:29:10;;;;;;;7.95;4.50;;;27.60;99.90;;;;;;5088156;28;20102;-83
2022/08/14 09:31:39;;;;;;;6.00;4.10;;;27.80;99.90;;;;;;5068692;28;20054;-83
2022/08/14 09:34:38;;;;;;;5.23;4.53;;;27.60;99.90;;;;;;5067472;28;20047;-83
2022/08/14 09:37:22;;;;;;;4.60;4.20;;;27.90;99.90;;;;;;5071569;28;20047;-83
2022/08/14 09:40:23;;;;;;;5.95;5.32;;;27.80;99.90;;;;;;5082426;28;20093;-81
2022/08/14 09:43:26;;;;;;;6.22;4.68;;;27.60;99.90;;;;;;5049887;28;20052;-83
2022/08/14 09:45:56;;;;;;;5.05;4.57;;;27.80;99.90;;;;;;5075828;28;20048;-80
2022/08/14 09:48:23;;;;;;;5.07;4.25;;;28.00;99.90;;;;;;5065775;28;20596;-83
2022/08/14 09:50:51;;;;;;;6.68;4.10;;;28.00;99.90;;;;;;5085331;28;20131;-81
2022/08/14 09:53:36;;;;;;;6.70;5.22;;;27.70;99.90;;;;;;5087202;28;20032;-83
2022/08/14 09:56:03;;;;;;;5.53;4.30;;;27.80;99.90;;;;;;5036755;28;20044;-83
2022/08/14 09:58:37;;;;;;;7.25;4.55;;;27.90;99.90;;;;;;5080689;28;20067;-85
2022/08/14 10:01:11;;;;;;;4.10;3.72;;;27.90;99.90;;;;;;5084570;28;20123;-83
2022/08/14 10:03:45;;;;;;;3.55;3.25;;;27.90;99.90;;;;;;5072087;28;20066;-86
2022/08/14 10:06:18;;;;;;;3.88;3.58;;;27.90;99.90;;;;;;5071345;28;20051;-86
2022/08/14 10:08:50;;;;;;;4.18;3.80;;;28.10;99.90;;;;;;5092779;28;20040;-87
2022/08/14 10:11:22;;;;;;;4.53;4.13;;;28.00;99.90;;;;;;5047075;28;20098;-88
2022/08/14 10:13:53;;;;;;;5.55;4.25;;;28.20;99.90;;;;;;5053556;28;20040;-82
2022/08/14 10:16:22;;;;;;;5.13;4.63;;;28.20;99.90;;;;;;5075996;28;20044;-76
2022/08/14 10:18:50;;;;;;;4.20;3.80;;;28.00;99.90;;;;;;5086983;28;20040;-86
2022/08/14 10:21:17;;;;;;;4.80;4.30;;;28.10;99.90;;;;;;5088745;28;20043;-85
2022/08/14 10:23:48;;;;;;;5.55;4.10;;;28.00;99.90;;;;;;5084382;28;20043;-83
2022/08/14 10:26:16;;;;;;;6.95;4.90;;;28.10;99.90;;;;;;5090166;28;20048;-84
2022/08/14 10:28:48;;;;;;;5.25;3.75;;;28.50;99.90;;;;;;5071635;28;20119;-84
2022/08/14 10:31:21;;;;;;;6.75;4.97;;;28.60;99.90;;;;;;5067506;28;20044;-83
2022/08/14 10:34:03;;;;;;;4.80;4.43;;;28.60;99.90;;;;;;5066494;28;20421;-82
2022/08/14 10:36:31;;;;;;;4.82;3.78;;;28.80;99.90;;;;;;5087839;28;20052;-85
2022/08/14 10:38:59;;;;;;;4.43;4.03;;;28.70;99.90;;;;;;5070562;28;20430;-82
2022/08/14 10:41:34;;;;;;;5.45;3.83;;;28.80;99.90;;;;;;5088174;28;20039;-84
2022/08/14 10:44:08;;;;;;;6.07;5.07;;;28.80;99.90;;;;;;5088077;28;20648;-83
2022/08/14 10:47:04;;;;;;;4.80;4.30;;;28.70;99.90;;;;;;5068325;28;20494;-84
2022/08/14 10:49:30;;;;;;;4.25;3.88;;;28.50;99.90;;;;;;5091654;28;20127;-84
2022/08/14 10:52:02;;;;;;;4.13;3.83;;;28.20;99.90;;;;;;5092542;28;20463;-84
2022/08/14 10:54:34;;;;;;;6.28;4.30;;;28.40;99.90;;;;;;5087462;28;20055;-83
2022/08/14 10:57:23;;;;;;;6.43;3.97;;;28.30;99.90;;;;;;5074104;28;20430;-83
2022/08/14 11:00:15;;;;;;;5.82;4.20;;;28.60;99.90;;;;;;5086846;28;20375;-83
2022/08/14 11:02:41;;;;;;;5.65;4.55;;;28.70;99.90;;;;;;5082848;28;20040;-83
2022/08/14 11:05:17;;;;;;;5.75;4.53;;;28.90;99.90;;;;;;5088351;28;20043;-83
2022/08/14 11:07:54;;;;;;;5.03;3.67;;;28.70;99.90;;;;;;5087296;28;20051;-82
2022/08/14 11:10:22;;;;;;;7.78;3.80;;;28.50;99.90;;;;;;5088766;28;20043;-83
2022/08/14 11:12:52;;;;;;;5.18;4.03;;;28.50;99.90;;;;;;5088700;28;20104;-82
2022/08/14 11:15:26;;;;;;;5.90;2.97;;;28.40;99.90;;;;;;5088692;28;20036;-84
2022/08/14 11:17:53;;;;;;;4.40;3.40;;;28.70;99.90;;;;;;5085864;28;20119;-82
2022/08/14 11:20:29;;;;;;;5.25;4.40;;;28.90;99.90;;;;;;5093413;28;20071;-83
2022/08/14 11:22:57;;;;;;;5.78;3.42;;;29.00;99.90;;;;;;5087835;28;20040;-83
2022/08/14 11:25:25;;;;;;;6.10;4.10;;;29.20;99.90;;;;;;5053014;28;20044;-85
2022/08/14 11:27:55;;;;;;;4.80;4.40;;;29.50;99.90;;;;;;5086922;28;20459;-81
2022/08/14 11:30:22;;;;;;;;;;;29.40;99.90;;;;;;5088105;28;20044;-84
2022/08/14 11:32:50;;;;;;;6.20;3.63;;;29.40;99.90;;;;;;5087423;28;19943;-84
2022/08/14 11:35:22;;;;;;;4.85;4.38;;;29.50;99.90;;;;;;5071150;28;20051;-84
2022/08/14 11:37:50;;;;;;;5.88;4.25;;;29.30;99.90;;;;;;5086531;28;20075;-84
2022/08/14 11:40:16;;;;;;;5.95;4.20;;;29.50;99.90;;;;;;5069815;28;20126;-84
2022/08/14 11:42:46;;;;;;;3.92;3.63;;;29.50;99.90;;;;;;5070497;28;20072;-83
2022/08/14 11:45:12;;;;;;;4.97;3.40;;;29.40;99.90;;;;;;5088062;28;20051;-86
2022/08/14 11:47:38;;;;;;;3.95;3.65;;;29.70;99.90;;;;;;5087052;28;20511;-82
2022/08/14 11:50:23;;;;;;;5.75;3.65;;;29.60;99.90;;;;;;5088062;28;20140;-84
2022/08/14 11:52:50;;;;;;;5.72;3.42;;;29.60;99.90;;;;;;5067705;28;20056;-84
2022/08/14 11:55:16;;;;;;;3.63;3.33;;;29.60;99.90;;;;;;5085112;28;20036;-81
2022/08/14 11:57:43;;;;;;;4.03;3.35;;;29.70;99.90;;;;;;5086747;28;20044;-83
2022/08/14 12:00:15;;;;;;;3.60;3.30;;;29.40;99.90;;;;;;5088568;28;20036;-86
2022/08/14 12:02:56;;;;;;;3.03;2.80;;;29.30;99.90;;;;;;5090699;28;20032;-84
2022/08/14 12:05:34;;;;;;;5.85;3.92;;;29.60;99.90;;;;;;5049490;28;20052;-78
2022/08/14 12:08:01;;;;;;;4.47;3.28;;;29.80;99.90;;;;;;5082681;28;20048;-82
2022/08/14 12:10:32;;;;;;;3.38;3.08;;;29.70;99.90;;;;;;5085114;28;20096;-83
2022/08/14 12:13:08;;;;;;;5.25;3.53;;;29.90;99.90;;;;;;5083480;28;20075;-83
2022/08/14 12:15:34;;;;;;;4.28;3.85;;;30.00;99.90;;;;;;5086683;28;20044;-82
2022/08/14 12:18:01;;;;;;;4.00;3.25;;;30.20;99.90;;;;;;5086672;28;20044;-82
2022/08/14 12:20:35;;;;;;;3.55;3.20;;;29.90;99.90;;;;;;5068506;28;20111;-81
2022/08/14 12:23:05;;;;;;;5.80;3.50;;;30.10;99.90;;;;;;5083106;28;20091;-81
2022/08/14 12:25:33;;;;;;;6.43;4.47;;;30.30;99.90;;;;;;5077082;28;20486;-82
2022/08/14 12:28:04;;;;;;;3.60;3.33;;;30.40;99.90;;;;;;5094236;28;20123;-83
2022/08/14 12:30:32;;;;;;;3.78;3.30;;;30.20;99.90;;;;;;5092050;28;20470;-83
2022/08/14 12:33:00;;;;;;;4.07;3.67;;;29.90;99.90;;;;;;5072235;28;20036;-86
2022/08/14 12:35:44;;;;;;;4.72;3.17;;;29.40;99.90;;;;;;5086519;28;20103;-83
2022/08/14 12:38:11;;;;;;;7.25;4.00;;;29.80;99.90;;;;;;5086925;28;20095;-83
2022/08/14 12:40:47;;;;;;;4.20;3.80;;;29.80;99.90;;;;;;5090311;28;20048;-83
2022/08/14 12:43:16;;;;;;;5.85;5.18;;;29.60;99.90;;;;;;5087074;28;20050;-83
2022/08/14 12:45:50;;;;;;;5.45;4.75;;;29.70;99.90;;;;;;5086681;28;20590;-76
2022/08/14 12:48:17;;;;;;;4.25;3.90;;;30.00;99.90;;;;;;5087521;28;20454;-84
2022/08/14 12:50:43;;;;;;;3.55;3.25;;;29.70;99.90;;;;;;5054406;28;20456;-86
2022/08/14 12:53:10;;;;;;;5.32;4.63;;;30.10;99.90;;;;;;5092941;28;20052;-86
2022/08/14 12:55:37;;;;;;;4.38;4.07;;;30.10;99.90;;;;;;5092579;28;20169;-85
2022/08/14 12:58:05;;;;;;;5.35;3.78;;;29.50;99.90;;;;;;5090734;28;20039;-85
2022/08/14 13:00:33;;;;;;;6.28;3.97;;;29.50;99.90;;;;;;5075049;28;20047;-86
2022/08/14 13:03:00;;;;;;;6.55;4.78;;;30.00;99.90;;;;;;5091653;28;20093;-85
2022/08/14 13:05:29;;;;;;;6.32;4.95;;;30.00;99.90;;;;;;5072862;28;20040;-83
2022/08/14 13:07:56;;;;;;;5.13;4.63;;;30.20;99.90;;;;;;5078093;28;20044;-82
2022/08/14 13:10:23;;;;;;;5.85;3.95;;;30.10;99.90;;;;;;5081974;28;20500;-85